createdAt,value
2023-03-02T00:08:56.833Z,-5.35
2023-03-02T00:19:02.535Z,-5.43
2023-03-02T00:29:08.444Z,-5.40
2023-03-02T00:39:14.084Z,-5.39
2023-03-02T00:49:19.707Z,-5.49
2023-03-02T00:59:28.022Z,-5.57
2023-03-02T01:09:34.489Z,-5.65
2023-03-02T01:19:40.579Z,-5.69
2023-03-02T01:29:46.463Z,-5.75
2023-03-02T01:39:52.239Z,-5.84
2023-03-02T01:50:01.125Z,-5.88
2023-03-02T02:00:12.945Z,-5.81
2023-03-02T02:10:19.265Z,-5.73
2023-03-02T02:20:29.791Z,-5.76
2023-03-02T02:30:36.352Z,-5.84
2023-03-02T02:40:51.316Z,-5.88
2023-03-02T02:51:00.585Z,-6.03
2023-03-02T03:01:07.653Z,-6.17
2023-03-02T03:11:15.345Z,-6.21
2023-03-02T03:21:20.965Z,-6.22
2023-03-02T03:31:28.130Z,-6.24
2023-03-02T03:41:33.796Z,-6.31
2023-03-02T03:51:39.448Z,-6.41
2023-03-02T04:01:48.623Z,-6.45
2023-03-02T04:11:56.536Z,-6.45
2023-03-02T04:22:04.081Z,-6.47
2023-03-02T04:32:10.504Z,-6.48
2023-03-02T04:42:16.204Z,-6.53
2023-03-02T04:52:22.142Z,-6.59
2023-03-02T05:02:27.923Z,-6.62
2023-03-02T05:12:53.775Z,-6.68
2023-03-02T05:23:01.705Z,-6.73
2023-03-02T05:33:07.398Z,-6.70
2023-03-02T05:43:16.067Z,-6.57
2023-03-02T05:53:21.889Z,-6.15
2023-03-02T06:03:27.687Z,-5.45
2023-03-02T06:13:33.455Z,-4.56
2023-03-02T06:23:39.126Z,-4.02
2023-03-02T06:33:45.137Z,-3.62
2023-03-02T06:43:50.807Z,-3.29
2023-03-02T06:53:56.363Z,-2.89
2023-03-02T07:04:02.026Z,-2.36
2023-03-02T07:14:07.726Z,-1.88
2023-03-02T07:24:13.328Z,-1.45
2023-03-02T07:34:19.074Z,-1.08
2023-03-02T07:44:24.712Z,-0.68
2023-03-02T07:54:30.773Z,-0.37
2023-03-02T08:04:38.402Z,0.03
2023-03-02T08:14:46.208Z,0.61
2023-03-02T08:24:52.031Z,1.31
2023-03-02T08:34:57.702Z,2.08
2023-03-02T08:45:03.450Z,2.78
2023-03-02T08:55:12.546Z,3.66
2023-03-02T09:05:18.433Z,5.35
2023-03-02T09:15:24.083Z,8.19
2023-03-02T09:25:30.264Z,10.69
2023-03-02T09:35:36.066Z,11.48
2023-03-02T09:45:58.193Z,10.14
2023-03-02T09:56:04.846Z,9.20
2023-03-02T10:06:11.229Z,8.71
2023-03-02T10:16:26.101Z,8.39
2023-03-02T10:26:41.208Z,8.22
2023-03-02T10:36:47.802Z,8.25
2023-03-02T10:46:54.007Z,7.80
2023-03-02T10:57:01.576Z,7.75
2023-03-02T11:07:13.127Z,7.77
2023-03-02T11:17:33.745Z,7.83
2023-03-02T11:27:44.298Z,7.48
2023-03-02T11:37:54.869Z,7.38
2023-03-02T11:48:05.702Z,7.55
2023-03-02T11:58:18.538Z,7.65
2023-03-02T12:08:37.657Z,7.51
2023-03-02T12:18:49.291Z,7.30
2023-03-02T12:29:03.742Z,7.22
2023-03-02T12:39:25.333Z,6.90
2023-03-02T12:49:46.176Z,6.76
2023-03-02T12:59:56.921Z,6.45
2023-03-02T13:10:04.884Z,6.33
2023-03-02T13:20:15.260Z,6.31
2023-03-02T13:30:26.995Z,6.18
2023-03-02T13:40:44.857Z,6.05
2023-03-02T13:51:00.045Z,5.72
2023-03-02T14:01:07.166Z,5.54
2023-03-02T14:11:15.110Z,5.45
2023-03-02T14:21:22.605Z,5.13
2023-03-02T14:31:28.624Z,4.91
2023-03-02T14:41:43.937Z,4.65
2023-03-02T14:52:06.072Z,4.37
2023-03-02T15:02:24.358Z,4.17
2023-03-02T15:12:30.917Z,3.94
2023-03-02T15:22:36.899Z,3.69
2023-03-02T15:32:42.541Z,3.41
2023-03-02T15:42:48.491Z,3.05
2023-03-02T15:52:54.268Z,2.87
2023-03-02T16:02:59.955Z,2.68
2023-03-02T16:13:07.199Z,2.49
2023-03-02T16:23:13.528Z,2.30
2023-03-02T16:33:20.817Z,2.16
2023-03-02T16:43:26.622Z,2.08
2023-03-02T16:53:32.433Z,2.00
2023-03-02T17:03:38.597Z,1.89
2023-03-02T17:13:44.233Z,1.79
2023-03-02T17:23:50.120Z,1.76
2023-03-02T17:33:56.289Z,1.72
2023-03-02T17:44:03.131Z,1.68
2023-03-02T17:54:07.446Z,1.63
2023-03-02T18:04:13.273Z,1.60
2023-03-02T18:14:21.470Z,1.53
2023-03-02T18:24:27.468Z,1.48
2023-03-02T18:34:33.198Z,1.46
2023-03-02T18:44:39.229Z,1.40
2023-03-02T18:54:46.514Z,1.35
2023-03-02T19:04:52.367Z,1.34
2023-03-02T19:14:59.252Z,1.33
2023-03-02T19:25:05.334Z,1.33
2023-03-02T19:35:14.814Z,1.33
2023-03-02T19:45:22.892Z,1.31
2023-03-02T19:55:29.344Z,1.15
2023-03-02T20:05:35.026Z,0.65
2023-03-02T20:15:44.451Z,0.10
2023-03-02T20:25:50.384Z,-0.46
2023-03-02T20:35:56.818Z,-0.93
2023-03-02T20:46:03.283Z,-1.32
2023-03-02T20:56:11.354Z,-1.77
2023-03-02T21:06:17.077Z,-2.12
2023-03-02T21:16:26.393Z,-2.40
2023-03-02T21:26:32.112Z,-2.61
2023-03-02T21:36:37.976Z,-2.85
2023-03-02T21:46:43.848Z,-2.98
2023-03-02T21:56:49.589Z,-2.89
2023-03-02T22:06:55.275Z,-2.63
2023-03-02T22:17:01.141Z,-2.22
2023-03-02T22:27:22.486Z,-1.92
2023-03-02T22:37:30.113Z,-1.62
2023-03-02T22:47:35.799Z,-1.26
2023-03-02T22:57:44.045Z,-1.09
2023-03-02T23:07:49.851Z,-0.92
2023-03-02T23:17:58.350Z,-0.77
2023-03-02T23:28:04.214Z,-0.60
2023-03-02T23:38:09.886Z,-0.47
2023-03-02T23:48:16.599Z,-0.35
2023-03-02T23:58:22.554Z,-0.27
